sensor_id;sensor_type;location;lat;lon;timestamp;P1;durP1;ratioP1;P2;durP2;ratioP2
10410;SDS011;5251;52.112;8.606;2023-06-22T00:00:54;4.05;;;3.75;;
10410;SDS011;5251;52.112;8.606;2023-06-22T00:03:20;4.25;;;3.85;;
10410;SDS011;5251;52.112;8.606;2023-06-22T00:05:47;4.85;;;4.00;;
10410;SDS011;5251;52.112;8.606;2023-06-22T00:08:13;3.97;;;3.45;;
10410;SDS011;5251;52.112;8.606;2023-06-22T00:10:40;4.32;;;3.90;;
10410;SDS011;5251;52.112;8.606;2023-06-22T00:13:06;4.53;;;4.13;;
10410;SDS011;5251;52.112;8.606;2023-06-22T00:15:32;4.10;;;3.70;;
10410;SDS011;5251;52.112;8.606;2023-06-22T00:17:58;4.45;;;4.05;;
10410;SDS011;5251;52.112;8.606;2023-06-22T00:20:24;5.10;;;4.05;;
10410;SDS011;5251;52.112;8.606;2023-06-22T00:22:55;4.82;;;4.32;;
10410;SDS011;5251;52.112;8.606;2023-06-22T00:25:21;4.60;;;4.18;;
10410;SDS011;5251;52.112;8.606;2023-06-22T00:27:47;6.10;;;5.50;;
10410;SDS011;5251;52.112;8.606;2023-06-22T00:30:13;6.32;;;5.72;;
10410;SDS011;5251;52.112;8.606;2023-06-22T00:32:40;6.97;;;6.28;;
10410;SDS011;5251;52.112;8.606;2023-06-22T00:35:06;7.80;;;6.85;;
10410;SDS011;5251;52.112;8.606;2023-06-22T00:37:32;7.80;;;7.00;;
10410;SDS011;5251;52.112;8.606;2023-06-22T00:39:57;7.95;;;7.07;;
10410;SDS011;5251;52.112;8.606;2023-06-22T00:42:24;7.00;;;6.35;;
10410;SDS011;5251;52.112;8.606;2023-06-22T00:44:49;9.55;;;7.15;;
10410;SDS011;5251;52.112;8.606;2023-06-22T00:47:15;8.98;;;8.07;;
10410;SDS011;5251;52.112;8.606;2023-06-22T00:49:42;7.45;;;6.75;;
10410;SDS011;5251;52.112;8.606;2023-06-22T00:52:09;8.48;;;6.93;;
10410;SDS011;5251;52.112;8.606;2023-06-22T00:54:38;8.30;;;7.43;;
10410;SDS011;5251;52.112;8.606;2023-06-22T00:57:11;8.10;;;7.30;;
10410;SDS011;5251;52.112;8.606;2023-06-22T00:59:41;8.27;;;7.47;;
10410;SDS011;5251;52.112;8.606;2023-06-22T01:02:07;10.18;;;7.20;;
10410;SDS011;5251;52.112;8.606;2023-06-22T01:04:35;8.93;;;7.53;;
10410;SDS011;5251;52.112;8.606;2023-06-22T01:09:33;7.40;;;6.70;;
10410;SDS011;5251;52.112;8.606;2023-06-22T01:12:06;7.47;;;6.47;;
10410;SDS011;5251;52.112;8.606;2023-06-22T01:14:35;7.53;;;6.85;;
10410;SDS011;5251;52.112;8.606;2023-06-22T01:17:08;8.55;;;7.03;;
10410;SDS011;5251;52.112;8.606;2023-06-22T01:19:39;8.00;;;7.15;;
10410;SDS011;5251;52.112;8.606;2023-06-22T01:22:11;7.78;;;7.07;;
10410;SDS011;5251;52.112;8.606;2023-06-22T01:30:30;7.72;;;7.03;;
10410;SDS011;5251;52.112;8.606;2023-06-22T01:32:59;7.88;;;7.07;;
10410;SDS011;5251;52.112;8.606;2023-06-22T01:35:28;9.50;;;7.15;;
10410;SDS011;5251;52.112;8.606;2023-06-22T01:37:54;7.50;;;6.80;;
10410;SDS011;5251;52.112;8.606;2023-06-22T01:40:20;8.07;;;6.90;;
10410;SDS011;5251;52.112;8.606;2023-06-22T01:42:47;8.15;;;7.45;;
10410;SDS011;5251;52.112;8.606;2023-06-22T01:45:13;8.27;;;7.30;;
10410;SDS011;5251;52.112;8.606;2023-06-22T01:47:40;8.18;;;7.38;;
10410;SDS011;5251;52.112;8.606;2023-06-22T01:50:06;8.20;;;6.95;;
10410;SDS011;5251;52.112;8.606;2023-06-22T01:52:33;8.02;;;7.30;;
10410;SDS011;5251;52.112;8.606;2023-06-22T01:54:59;9.20;;;8.02;;
10410;SDS011;5251;52.112;8.606;2023-06-22T01:57:26;9.25;;;7.82;;
10410;SDS011;5251;52.112;8.606;2023-06-22T02:00:05;10.23;;;7.55;;
10410;SDS011;5251;52.112;8.606;2023-06-22T02:02:39;9.55;;;8.65;;
10410;SDS011;5251;52.112;8.606;2023-06-22T02:05:09;8.88;;;7.97;;
10410;SDS011;5251;52.112;8.606;2023-06-22T02:08:38;8.32;;;7.53;;
10410;SDS011;5251;52.112;8.606;2023-06-22T02:10:31;8.18;;;7.40;;
10410;SDS011;5251;52.112;8.606;2023-06-22T02:12:59;9.63;;;8.75;;
10410;SDS011;5251;52.112;8.606;2023-06-22T02:15:26;8.25;;;7.47;;
10410;SDS011;5251;52.112;8.606;2023-06-22T02:17:52;9.15;;;8.23;;
10410;SDS011;5251;52.112;8.606;2023-06-22T02:20:18;9.95;;;8.95;;
10410;SDS011;5251;52.112;8.606;2023-06-22T02:22:43;8.88;;;8.07;;
10410;SDS011;5251;52.112;8.606;2023-06-22T02:25:09;9.10;;;8.25;;
10410;SDS011;5251;52.112;8.606;2023-06-22T02:27:34;9.48;;;8.23;;
10410;SDS011;5251;52.112;8.606;2023-06-22T02:30:00;9.07;;;8.20;;
10410;SDS011;5251;52.112;8.606;2023-06-22T02:32:26;10.00;;;9.00;;
10410;SDS011;5251;52.112;8.606;2023-06-22T02:34:52;9.60;;;8.70;;
10410;SDS011;5251;52.112;8.606;2023-06-22T02:37:18;9.50;;;8.52;;
10410;SDS011;5251;52.112;8.606;2023-06-22T02:39:43;8.48;;;7.57;;
10410;SDS011;5251;52.112;8.606;2023-06-22T02:42:09;9.82;;;8.73;;
10410;SDS011;5251;52.112;8.606;2023-06-22T02:44:38;10.00;;;9.00;;
10410;SDS011;5251;52.112;8.606;2023-06-22T02:47:03;10.07;;;9.05;;
10410;SDS011;5251;52.112;8.606;2023-06-22T02:49:30;9.90;;;9.00;;
10410;SDS011;5251;52.112;8.606;2023-06-22T02:51:57;9.80;;;8.70;;
10410;SDS011;5251;52.112;8.606;2023-06-22T02:54:22;10.00;;;9.07;;
10410;SDS011;5251;52.112;8.606;2023-06-22T02:56:48;10.60;;;9.60;;
10410;SDS011;5251;52.112;8.606;2023-06-22T02:59:15;10.48;;;9.15;;
10410;SDS011;5251;52.112;8.606;2023-06-22T03:01:41;9.27;;;8.45;;
10410;SDS011;5251;52.112;8.606;2023-06-22T03:04:07;9.63;;;8.77;;
10410;SDS011;5251;52.112;8.606;2023-06-22T03:06:33;10.85;;;9.60;;
10410;SDS011;5251;52.112;8.606;2023-06-22T03:09:00;9.23;;;8.38;;
10410;SDS011;5251;52.112;8.606;2023-06-22T03:11:28;10.63;;;9.60;;
10410;SDS011;5251;52.112;8.606;2023-06-22T03:13:54;10.65;;;9.32;;
10410;SDS011;5251;52.112;8.606;2023-06-22T03:16:20;9.35;;;8.45;;
10410;SDS011;5251;52.112;8.606;2023-06-22T03:18:46;12.77;;;9.10;;
10410;SDS011;5251;52.112;8.606;2023-06-22T03:21:11;10.85;;;9.68;;
10410;SDS011;5251;52.112;8.606;2023-06-22T03:23:37;9.95;;;9.05;;
10410;SDS011;5251;52.112;8.606;2023-06-22T03:26:02;10.30;;;9.32;;
10410;SDS011;5251;52.112;8.606;2023-06-22T03:28:29;10.75;;;9.43;;
10410;SDS011;5251;52.112;8.606;2023-06-22T03:30:56;10.77;;;9.68;;
10410;SDS011;5251;52.112;8.606;2023-06-22T03:33:22;10.40;;;9.23;;
10410;SDS011;5251;52.112;8.606;2023-06-22T03:35:48;11.93;;;9.73;;
10410;SDS011;5251;52.112;8.606;2023-06-22T03:38:15;10.05;;;9.05;;
10410;SDS011;5251;52.112;8.606;2023-06-22T03:40:41;10.45;;;9.20;;
10410;SDS011;5251;52.112;8.606;2023-06-22T03:43:07;10.93;;;9.50;;
10410;SDS011;5251;52.112;8.606;2023-06-22T03:45:32;10.40;;;9.00;;
10410;SDS011;5251;52.112;8.606;2023-06-22T03:47:58;10.43;;;9.30;;
10410;SDS011;5251;52.112;8.606;2023-06-22T03:50:23;13.57;;;9.63;;
10410;SDS011;5251;52.112;8.606;2023-06-22T03:52:49;10.63;;;9.52;;
10410;SDS011;5251;52.112;8.606;2023-06-22T03:55:16;10.75;;;9.75;;
10410;SDS011;5251;52.112;8.606;2023-06-22T03:57:42;12.02;;;10.50;;
10410;SDS011;5251;52.112;8.606;2023-06-22T04:00:07;12.85;;;11.57;;
10410;SDS011;5251;52.112;8.606;2023-06-22T04:02:34;11.45;;;10.35;;
10410;SDS011;5251;52.112;8.606;2023-06-22T04:05:00;12.63;;;11.18;;
10410;SDS011;5251;52.112;8.606;2023-06-22T04:07:26;12.00;;;10.77;;
10410;SDS011;5251;52.112;8.606;2023-06-22T04:09:51;11.13;;;10.00;;
10410;SDS011;5251;52.112;8.606;2023-06-22T04:12:17;15.00;;;10.93;;
10410;SDS011;5251;52.112;8.606;2023-06-22T04:14:42;11.45;;;10.25;;
10410;SDS011;5251;52.112;8.606;2023-06-22T04:17:08;11.68;;;9.65;;
10410;SDS011;5251;52.112;8.606;2023-06-22T04:19:33;11.57;;;10.45;;
10410;SDS011;5251;52.112;8.606;2023-06-22T04:21:59;11.35;;;10.25;;
10410;SDS011;5251;52.112;8.606;2023-06-22T04:24:25;10.15;;;9.15;;
10410;SDS011;5251;52.112;8.606;2023-06-22T04:26:50;11.40;;;10.30;;
10410;SDS011;5251;52.112;8.606;2023-06-22T04:29:19;12.55;;;10.23;;
10410;SDS011;5251;52.112;8.606;2023-06-22T04:31:45;11.48;;;10.13;;
10410;SDS011;5251;52.112;8.606;2023-06-22T04:34:15;10.93;;;9.90;;
10410;SDS011;5251;52.112;8.606;2023-06-22T04:36:41;11.65;;;10.20;;
10410;SDS011;5251;52.112;8.606;2023-06-22T04:39:11;10.68;;;9.52;;
10410;SDS011;5251;52.112;8.606;2023-06-22T04:41:37;11.55;;;9.73;;
10410;SDS011;5251;52.112;8.606;2023-06-22T04:44:13;12.95;;;10.35;;
10410;SDS011;5251;52.112;8.606;2023-06-22T04:46:54;11.05;;;9.95;;
10410;SDS011;5251;52.112;8.606;2023-06-22T04:49:24;11.55;;;10.35;;
10410;SDS011;5251;52.112;8.606;2023-06-22T04:51:57;9.77;;;8.77;;
10410;SDS011;5251;52.112;8.606;2023-06-22T04:54:25;10.80;;;9.70;;
10410;SDS011;5251;52.112;8.606;2023-06-22T04:56:51;10.07;;;9.05;;
10410;SDS011;5251;52.112;8.606;2023-06-22T04:59:23;9.52;;;8.63;;
10410;SDS011;5251;52.112;8.606;2023-06-22T05:01:56;9.75;;;8.75;;
10410;SDS011;5251;52.112;8.606;2023-06-22T05:04:24;11.00;;;9.02;;
10410;SDS011;5251;52.112;8.606;2023-06-22T05:06:50;10.43;;;9.30;;
10410;SDS011;5251;52.112;8.606;2023-06-22T05:09:16;9.77;;;8.88;;
10410;SDS011;5251;52.112;8.606;2023-06-22T05:11:42;11.18;;;9.50;;
10410;SDS011;5251;52.112;8.606;2023-06-22T05:14:08;9.73;;;8.88;;
10410;SDS011;5251;52.112;8.606;2023-06-22T05:16:34;10.20;;;9.10;;
10410;SDS011;5251;52.112;8.606;2023-06-22T05:19:00;9.88;;;9.02;;
10410;SDS011;5251;52.112;8.606;2023-06-22T05:21:28;10.15;;;9.15;;
10410;SDS011;5251;52.112;8.606;2023-06-22T05:23:55;10.35;;;9.35;;
10410;SDS011;5251;52.112;8.606;2023-06-22T05:26:25;9.55;;;8.65;;
10410;SDS011;5251;52.112;8.606;2023-06-22T05:28:54;8.95;;;8.15;;
10410;SDS011;5251;52.112;8.606;2023-06-22T05:31:19;10.45;;;9.45;;
10410;SDS011;5251;52.112;8.606;2023-06-22T05:33:46;10.80;;;9.10;;
10410;SDS011;5251;52.112;8.606;2023-06-22T05:36:13;10.73;;;9.73;;
10410;SDS011;5251;52.112;8.606;2023-06-22T05:38:39;11.68;;;10.48;;
10410;SDS011;5251;52.112;8.606;2023-06-22T05:41:05;10.93;;;9.50;;
10410;SDS011;5251;52.112;8.606;2023-06-22T05:43:31;10.38;;;9.38;;
10410;SDS011;5251;52.112;8.606;2023-06-22T05:45:57;11.18;;;9.90;;
10410;SDS011;5251;52.112;8.606;2023-06-22T05:48:23;11.68;;;10.48;;
10410;SDS011;5251;52.112;8.606;2023-06-22T05:50:49;10.57;;;9.57;;
10410;SDS011;5251;52.112;8.606;2023-06-22T05:53:14;10.88;;;9.77;;
10410;SDS011;5251;52.112;8.606;2023-06-22T05:55:40;10.77;;;9.77;;
10410;SDS011;5251;52.112;8.606;2023-06-22T05:58:07;9.98;;;9.05;;
10410;SDS011;5251;52.112;8.606;2023-06-22T06:00:33;10.82;;;9.70;;
10410;SDS011;5251;52.112;8.606;2023-06-22T06:02:59;11.43;;;10.25;;
10410;SDS011;5251;52.112;8.606;2023-06-22T06:05:28;10.65;;;9.65;;
10410;SDS011;5251;52.112;8.606;2023-06-22T06:07:55;10.13;;;9.18;;
10410;SDS011;5251;52.112;8.606;2023-06-22T06:10:20;10.63;;;9.60;;
10410;SDS011;5251;52.112;8.606;2023-06-22T06:12:46;9.35;;;8.45;;
10410;SDS011;5251;52.112;8.606;2023-06-22T06:15:12;10.60;;;9.60;;
10410;SDS011;5251;52.112;8.606;2023-06-22T06:17:50;9.98;;;8.65;;
10410;SDS011;5251;52.112;8.606;2023-06-22T06:20:21;10.45;;;9.43;;
10410;SDS011;5251;52.112;8.606;2023-06-22T06:22:48;10.38;;;9.43;;
10410;SDS011;5251;52.112;8.606;2023-06-22T06:25:15;10.68;;;9.68;;
10410;SDS011;5251;52.112;8.606;2023-06-22T06:27:44;11.25;;;10.10;;
10410;SDS011;5251;52.112;8.606;2023-06-22T06:30:11;11.68;;;10.25;;
10410;SDS011;5251;52.112;8.606;2023-06-22T06:32:38;10.75;;;9.68;;
10410;SDS011;5251;52.112;8.606;2023-06-22T06:35:07;10.23;;;9.32;;
10410;SDS011;5251;52.112;8.606;2023-06-22T06:37:41;10.20;;;9.30;;
10410;SDS011;5251;52.112;8.606;2023-06-22T06:40:09;9.27;;;8.38;;
10410;SDS011;5251;52.112;8.606;2023-06-22T06:42:37;10.70;;;9.65;;
10410;SDS011;5251;52.112;8.606;2023-06-22T06:45:05;10.98;;;9.55;;
10410;SDS011;5251;52.112;8.606;2023-06-22T06:47:31;11.20;;;9.95;;
10410;SDS011;5251;52.112;8.606;2023-06-22T06:49:57;10.73;;;9.75;;
10410;SDS011;5251;52.112;8.606;2023-06-22T06:52:23;9.63;;;8.73;;
10410;SDS011;5251;52.112;8.606;2023-06-22T06:54:48;11.10;;;10.02;;
10410;SDS011;5251;52.112;8.606;2023-06-22T06:57:14;9.65;;;8.75;;
10410;SDS011;5251;52.112;8.606;2023-06-22T06:59:40;10.55;;;9.50;;
10410;SDS011;5251;52.112;8.606;2023-06-22T07:02:06;11.57;;;10.38;;
10410;SDS011;5251;52.112;8.606;2023-06-22T07:04:32;10.40;;;9.32;;
10410;SDS011;5251;52.112;8.606;2023-06-22T07:06:58;10.77;;;9.77;;
10410;SDS011;5251;52.112;8.606;2023-06-22T07:09:26;10.45;;;9.45;;
10410;SDS011;5251;52.112;8.606;2023-06-22T07:11:51;11.30;;;10.20;;
10410;SDS011;5251;52.112;8.606;2023-06-22T07:14:17;11.75;;;10.57;;
10410;SDS011;5251;52.112;8.606;2023-06-22T07:16:42;9.77;;;8.85;;
10410;SDS011;5251;52.112;8.606;2023-06-22T07:19:11;10.77;;;9.68;;
10410;SDS011;5251;52.112;8.606;2023-06-22T07:21:37;9.60;;;8.60;;
10410;SDS011;5251;52.112;8.606;2023-06-22T07:24:04;10.27;;;9.27;;
10410;SDS011;5251;52.112;8.606;2023-06-22T07:26:31;10.55;;;9.55;;
10410;SDS011;5251;52.112;8.606;2023-06-22T07:28:56;11.13;;;10.05;;
10410;SDS011;5251;52.112;8.606;2023-06-22T07:31:23;10.02;;;9.18;;
10410;SDS011;5251;52.112;8.606;2023-06-22T07:33:50;10.77;;;9.77;;
10410;SDS011;5251;52.112;8.606;2023-06-22T07:36:16;10.20;;;9.30;;
10410;SDS011;5251;52.112;8.606;2023-06-22T07:38:43;10.73;;;9.73;;
10410;SDS011;5251;52.112;8.606;2023-06-22T07:41:09;10.32;;;9.25;;
10410;SDS011;5251;52.112;8.606;2023-06-22T07:43:34;11.00;;;9.90;;
10410;SDS011;5251;52.112;8.606;2023-06-22T07:46:02;10.15;;;9.18;;
10410;SDS011;5251;52.112;8.606;2023-06-22T07:48:28;10.48;;;9.38;;
10410;SDS011;5251;52.112;8.606;2023-06-22T07:50:54;10.90;;;9.80;;
10410;SDS011;5251;52.112;8.606;2023-06-22T07:53:20;10.68;;;9.70;;
10410;SDS011;5251;52.112;8.606;2023-06-22T07:55:47;11.43;;;10.32;;
10410;SDS011;5251;52.112;8.606;2023-06-22T07:58:13;11.45;;;10.35;;
10410;SDS011;5251;52.112;8.606;2023-06-22T08:00:38;11.63;;;10.55;;
10410;SDS011;5251;52.112;8.606;2023-06-22T08:03:04;11.70;;;10.55;;
10410;SDS011;5251;52.112;8.606;2023-06-22T08:05:30;11.38;;;10.38;;
10410;SDS011;5251;52.112;8.606;2023-06-22T08:07:56;10.73;;;9.73;;
10410;SDS011;5251;52.112;8.606;2023-06-22T08:10:22;11.18;;;10.07;;
10410;SDS011;5251;52.112;8.606;2023-06-22T08:12:47;10.52;;;9.52;;
10410;SDS011;5251;52.112;8.606;2023-06-22T08:15:13;10.95;;;9.85;;
10410;SDS011;5251;52.112;8.606;2023-06-22T08:17:39;9.95;;;9.00;;
10410;SDS011;5251;52.112;8.606;2023-06-22T08:20:05;11.13;;;9.10;;
10410;SDS011;5251;52.112;8.606;2023-06-22T08:22:36;10.45;;;9.00;;
10410;SDS011;5251;52.112;8.606;2023-06-22T08:25:02;10.38;;;9.48;;
10410;SDS011;5251;52.112;8.606;2023-06-22T08:27:29;10.00;;;9.10;;
10410;SDS011;5251;52.112;8.606;2023-06-22T08:29:57;11.07;;;9.90;;
10410;SDS011;5251;52.112;8.606;2023-06-22T08:32:24;10.77;;;9.68;;
10410;SDS011;5251;52.112;8.606;2023-06-22T08:34:51;10.80;;;9.82;;
10410;SDS011;5251;52.112;8.606;2023-06-22T08:37:17;10.60;;;9.48;;
10410;SDS011;5251;52.112;8.606;2023-06-22T08:39:43;11.02;;;9.85;;
10410;SDS011;5251;52.112;8.606;2023-06-22T08:42:09;11.32;;;10.13;;
10410;SDS011;5251;52.112;8.606;2023-06-22T08:44:35;11.00;;;10.00;;
10410;SDS011;5251;52.112;8.606;2023-06-22T08:47:00;10.68;;;9.73;;
10410;SDS011;5251;52.112;8.606;2023-06-22T08:49:27;11.10;;;10.05;;
10410;SDS011;5251;52.112;8.606;2023-06-22T08:51:52;12.50;;;11.38;;
10410;SDS011;5251;52.112;8.606;2023-06-22T08:54:21;12.02;;;10.85;;
10410;SDS011;5251;52.112;8.606;2023-06-22T08:56:46;11.80;;;10.60;;
10410;SDS011;5251;52.112;8.606;2023-06-22T08:59:12;10.93;;;9.70;;
10410;SDS011;5251;52.112;8.606;2023-06-22T09:01:37;12.10;;;10.90;;
10410;SDS011;5251;52.112;8.606;2023-06-22T09:04:03;11.57;;;10.38;;
10410;SDS011;5251;52.112;8.606;2023-06-22T09:06:31;11.63;;;10.52;;
10410;SDS011;5251;52.112;8.606;2023-06-22T09:08:56;11.02;;;9.95;;
10410;SDS011;5251;52.112;8.606;2023-06-22T09:11:24;11.05;;;9.93;;
10410;SDS011;5251;52.112;8.606;2023-06-22T09:13:50;11.07;;;9.98;;
10410;SDS011;5251;52.112;8.606;2023-06-22T09:16:17;10.82;;;9.73;;
10410;SDS011;5251;52.112;8.606;2023-06-22T09:18:42;10.45;;;9.55;;
10410;SDS011;5251;52.112;8.606;2023-06-22T09:21:11;11.73;;;10.30;;
10410;SDS011;5251;52.112;8.606;2023-06-22T09:23:37;10.68;;;9.77;;
10410;SDS011;5251;52.112;8.606;2023-06-22T09:26:02;10.80;;;9.85;;
10410;SDS011;5251;52.112;8.606;2023-06-22T09:28:29;10.95;;;10.00;;
10410;SDS011;5251;52.112;8.606;2023-06-22T09:30:54;11.23;;;10.00;;
10410;SDS011;5251;52.112;8.606;2023-06-22T09:33:23;10.25;;;9.35;;
10410;SDS011;5251;52.112;8.606;2023-06-22T09:35:49;10.45;;;9.40;;
10410;SDS011;5251;52.112;8.606;2023-06-22T09:38:16;9.73;;;8.93;;
10410;SDS011;5251;52.112;8.606;2023-06-22T09:40:41;10.43;;;9.38;;
10410;SDS011;5251;52.112;8.606;2023-06-22T09:43:07;10.30;;;9.35;;
10410;SDS011;5251;52.112;8.606;2023-06-22T09:45:33;10.15;;;9.23;;
10410;SDS011;5251;52.112;8.606;2023-06-22T09:47:58;10.82;;;8.85;;
10410;SDS011;5251;52.112;8.606;2023-06-22T09:50:24;8.90;;;8.15;;
10410;SDS011;5251;52.112;8.606;2023-06-22T09:52:49;10.43;;;9.43;;
10410;SDS011;5251;52.112;8.606;2023-06-22T09:55:19;9.77;;;8.73;;
10410;SDS011;5251;52.112;8.606;2023-06-22T09:57:45;8.80;;;7.97;;
10410;SDS011;5251;52.112;8.606;2023-06-22T10:00:11;9.60;;;8.80;;
10410;SDS011;5251;52.112;8.606;2023-06-22T10:02:39;9.50;;;8.70;;
10410;SDS011;5251;52.112;8.606;2023-06-22T10:05:05;8.95;;;8.15;;
10410;SDS011;5251;52.112;8.606;2023-06-22T10:07:32;9.57;;;8.68;;
10410;SDS011;5251;52.112;8.606;2023-06-22T10:09:58;9.88;;;8.98;;
10410;SDS011;5251;52.112;8.606;2023-06-22T10:12:23;10.38;;;9.25;;
10410;SDS011;5251;52.112;8.606;2023-06-22T10:14:50;9.30;;;8.40;;
10410;SDS011;5251;52.112;8.606;2023-06-22T10:17:16;9.40;;;8.60;;
10410;SDS011;5251;52.112;8.606;2023-06-22T10:19:41;10.18;;;9.27;;
10410;SDS011;5251;52.112;8.606;2023-06-22T10:22:07;9.48;;;8.68;;
10410;SDS011;5251;52.112;8.606;2023-06-22T10:24:32;9.00;;;8.20;;
10410;SDS011;5251;52.112;8.606;2023-06-22T10:26:58;9.40;;;8.50;;
10410;SDS011;5251;52.112;8.606;2023-06-22T10:29:23;9.55;;;8.63;;
10410;SDS011;5251;52.112;8.606;2023-06-22T10:31:49;10.43;;;8.65;;
10410;SDS011;5251;52.112;8.606;2023-06-22T10:34:15;9.82;;;8.93;;
10410;SDS011;5251;52.112;8.606;2023-06-22T10:36:40;9.45;;;8.60;;
10410;SDS011;5251;52.112;8.606;2023-06-22T10:39:06;9.52;;;8.63;;
10410;SDS011;5251;52.112;8.606;2023-06-22T10:41:32;9.35;;;8.55;;
10410;SDS011;5251;52.112;8.606;2023-06-22T10:43:57;9.55;;;8.75;;
10410;SDS011;5251;52.112;8.606;2023-06-22T10:46:25;8.57;;;7.78;;
10410;SDS011;5251;52.112;8.606;2023-06-22T10:48:52;8.85;;;8.15;;
10410;SDS011;5251;52.112;8.606;2023-06-22T10:51:20;8.02;;;7.32;;
10410;SDS011;5251;52.112;8.606;2023-06-22T10:53:45;8.95;;;8.15;;
10410;SDS011;5251;52.112;8.606;2023-06-22T10:56:11;8.82;;;8.02;;
10410;SDS011;5251;52.112;8.606;2023-06-22T10:58:37;8.90;;;8.15;;
10410;SDS011;5251;52.112;8.606;2023-06-22T11:01:02;10.05;;;9.15;;
10410;SDS011;5251;52.112;8.606;2023-06-22T11:03:28;8.68;;;7.85;;
10410;SDS011;5251;52.112;8.606;2023-06-22T11:05:53;9.13;;;8.23;;
10410;SDS011;5251;52.112;8.606;2023-06-22T11:08:19;9.82;;;8.82;;
10410;SDS011;5251;52.112;8.606;2023-06-22T11:10:45;8.73;;;7.88;;
10410;SDS011;5251;52.112;8.606;2023-06-22T11:13:10;8.07;;;7.38;;
10410;SDS011;5251;52.112;8.606;2023-06-22T11:15:36;9.50;;;8.60;;
10410;SDS011;5251;52.112;8.606;2023-06-22T11:18:02;9.85;;;8.95;;
10410;SDS011;5251;52.112;8.606;2023-06-22T11:20:30;9.23;;;8.43;;
10410;SDS011;5251;52.112;8.606;2023-06-22T11:22:55;10.40;;;8.52;;
10410;SDS011;5251;52.112;8.606;2023-06-22T11:25:21;9.13;;;8.32;;
10410;SDS011;5251;52.112;8.606;2023-06-22T11:27:47;9.93;;;9.02;;
10410;SDS011;5251;52.112;8.606;2023-06-22T11:30:12;9.32;;;8.43;;
10410;SDS011;5251;52.112;8.606;2023-06-22T11:32:38;9.57;;;8.68;;
10410;SDS011;5251;52.112;8.606;2023-06-22T11:35:04;9.82;;;8.13;;
10410;SDS011;5251;52.112;8.606;2023-06-22T11:37:30;8.18;;;7.35;;
10410;SDS011;5251;52.112;8.606;2023-06-22T11:39:55;9.07;;;8.18;;
10410;SDS011;5251;52.112;8.606;2023-06-22T11:42:21;11.75;;;10.15;;
10410;SDS011;5251;52.112;8.606;2023-06-22T11:44:48;9.30;;;8.50;;
10410;SDS011;5251;52.112;8.606;2023-06-22T11:47:14;10.13;;;9.10;;
10410;SDS011;5251;52.112;8.606;2023-06-22T11:49:40;10.05;;;9.15;;
10410;SDS011;5251;52.112;8.606;2023-06-22T11:52:06;10.20;;;9.23;;
10410;SDS011;5251;52.112;8.606;2023-06-22T11:54:32;9.32;;;8.50;;
10410;SDS011;5251;52.112;8.606;2023-06-22T11:56:58;9.27;;;8.48;;
10410;SDS011;5251;52.112;8.606;2023-06-22T11:59:24;10.15;;;9.15;;
10410;SDS011;5251;52.112;8.606;2023-06-22T12:01:50;10.48;;;9.57;;
10410;SDS011;5251;52.112;8.606;2023-06-22T12:04:16;8.70;;;7.90;;
10410;SDS011;5251;52.112;8.606;2023-06-22T12:06:42;8.07;;;7.38;;
10410;SDS011;5251;52.112;8.606;2023-06-22T12:09:08;9.10;;;8.18;;
10410;SDS011;5251;52.112;8.606;2023-06-22T12:11:34;9.02;;;8.25;;
10410;SDS011;5251;52.112;8.606;2023-06-22T12:14:00;8.60;;;7.80;;
10410;SDS011;5251;52.112;8.606;2023-06-22T12:16:30;8.75;;;7.95;;
10410;SDS011;5251;52.112;8.606;2023-06-22T12:18:55;9.07;;;8.35;;
10410;SDS011;5251;52.112;8.606;2023-06-22T12:21:21;9.88;;;8.88;;
10410;SDS011;5251;52.112;8.606;2023-06-22T12:23:47;9.35;;;8.55;;
10410;SDS011;5251;52.112;8.606;2023-06-22T12:26:12;8.63;;;7.70;;
10410;SDS011;5251;52.112;8.606;2023-06-22T12:28:38;8.63;;;7.80;;
10410;SDS011;5251;52.112;8.606;2023-06-22T12:31:03;8.43;;;7.72;;
10410;SDS011;5251;52.112;8.606;2023-06-22T12:33:29;8.43;;;7.43;;
10410;SDS011;5251;52.112;8.606;2023-06-22T12:35:55;8.45;;;7.47;;
10410;SDS011;5251;52.112;8.606;2023-06-22T12:38:21;8.35;;;7.47;;
10410;SDS011;5251;52.112;8.606;2023-06-22T12:40:47;7.13;;;6.53;;
10410;SDS011;5251;52.112;8.606;2023-06-22T12:43:14;8.77;;;7.95;;
10410;SDS011;5251;52.112;8.606;2023-06-22T12:45:40;10.63;;;8.20;;
10410;SDS011;5251;52.112;8.606;2023-06-22T12:48:05;8.35;;;7.55;;
10410;SDS011;5251;52.112;8.606;2023-06-22T12:50:31;7.82;;;7.18;;
10410;SDS011;5251;52.112;8.606;2023-06-22T12:52:57;9.35;;;8.32;;
10410;SDS011;5251;52.112;8.606;2023-06-22T12:55:23;9.93;;;8.10;;
10410;SDS011;5251;52.112;8.606;2023-06-22T12:57:48;10.05;;;9.10;;
10410;SDS011;5251;52.112;8.606;2023-06-22T13:00:14;9.85;;;7.85;;
10410;SDS011;5251;52.112;8.606;2023-06-22T13:02:40;9.55;;;8.65;;
10410;SDS011;5251;52.112;8.606;2023-06-22T13:05:05;11.27;;;10.27;;
10410;SDS011;5251;52.112;8.606;2023-06-22T13:07:31;9.88;;;8.98;;
10410;SDS011;5251;52.112;8.606;2023-06-22T13:09:57;10.35;;;9.35;;
10410;SDS011;5251;52.112;8.606;2023-06-22T13:12:23;10.50;;;9.55;;
10410;SDS011;5251;52.112;8.606;2023-06-22T13:14:48;10.80;;;9.80;;
10410;SDS011;5251;52.112;8.606;2023-06-22T13:17:14;10.60;;;9.50;;
10410;SDS011;5251;52.112;8.606;2023-06-22T13:19:40;10.10;;;9.20;;
10410;SDS011;5251;52.112;8.606;2023-06-22T13:22:25;11.63;;;10.43;;
10410;SDS011;5251;52.112;8.606;2023-06-22T13:24:51;10.85;;;9.85;;
10410;SDS011;5251;52.112;8.606;2023-06-22T13:27:17;11.18;;;10.18;;
10410;SDS011;5251;52.112;8.606;2023-06-22T13:29:45;11.25;;;10.15;;
10410;SDS011;5251;52.112;8.606;2023-06-22T13:32:14;15.13;;;13.93;;
10410;SDS011;5251;52.112;8.606;2023-06-22T13:34:39;13.48;;;12.27;;
10410;SDS011;5251;52.112;8.606;2023-06-22T13:37:05;13.82;;;12.52;;
10410;SDS011;5251;52.112;8.606;2023-06-22T13:39:31;49.72;;;47.03;;
10410;SDS011;5251;52.112;8.606;2023-06-22T13:41:57;119.70;;;113.95;;
10410;SDS011;5251;52.112;8.606;2023-06-22T13:44:23;153.70;;;145.98;;
10410;SDS011;5251;52.112;8.606;2023-06-22T13:46:52;216.38;;;205.70;;
10410;SDS011;5251;52.112;8.606;2023-06-22T13:49:18;234.90;;;223.18;;
10410;SDS011;5251;52.112;8.606;2023-06-22T13:51:43;255.48;;;241.85;;
10410;SDS011;5251;52.112;8.606;2023-06-22T13:54:09;95.00;;;90.18;;
10410;SDS011;5251;52.112;8.606;2023-06-22T13:56:35;117.15;;;111.47;;
10410;SDS011;5251;52.112;8.606;2023-06-22T13:59:00;153.65;;;146.00;;
10410;SDS011;5251;52.112;8.606;2023-06-22T14:01:26;184.02;;;174.82;;
10410;SDS011;5251;52.112;8.606;2023-06-22T14:03:52;257.60;;;244.50;;
10410;SDS011;5251;52.112;8.606;2023-06-22T14:06:17;291.92;;;277.20;;
10410;SDS011;5251;52.112;8.606;2023-06-22T14:08:43;354.13;;;335.75;;
10410;SDS011;5251;52.112;8.606;2023-06-22T14:11:09;423.08;;;400.10;;
10410;SDS011;5251;52.112;8.606;2023-06-22T14:13:35;38.55;;;36.22;;
10410;SDS011;5251;52.112;8.606;2023-06-22T14:16:01;43.30;;;40.20;;
10410;SDS011;5251;52.112;8.606;2023-06-22T14:18:27;48.33;;;45.50;;
10410;SDS011;5251;52.112;8.606;2023-06-22T14:20:53;57.00;;;53.80;;
10410;SDS011;5251;52.112;8.606;2023-06-22T14:23:19;66.82;;;63.03;;
10410;SDS011;5251;52.112;8.606;2023-06-22T14:25:45;82.15;;;77.40;;
10410;SDS011;5251;52.112;8.606;2023-06-22T14:28:10;94.60;;;89.80;;
10410;SDS011;5251;52.112;8.606;2023-06-22T14:30:36;87.90;;;83.25;;
10410;SDS011;5251;52.112;8.606;2023-06-22T14:33:02;101.57;;;96.28;;
10410;SDS011;5251;52.112;8.606;2023-06-22T14:35:27;127.32;;;121.10;;
10410;SDS011;5251;52.112;8.606;2023-06-22T14:37:53;172.77;;;164.32;;
10410;SDS011;5251;52.112;8.606;2023-06-22T14:40:18;228.32;;;217.45;;
10410;SDS011;5251;52.112;8.606;2023-06-22T14:42:44;300.15;;;285.67;;
10410;SDS011;5251;52.112;8.606;2023-06-22T14:45:09;399.13;;;377.80;;
10410;SDS011;5251;52.112;8.606;2023-06-22T14:47:35;432.83;;;408.60;;
10410;SDS011;5251;52.112;8.606;2023-06-22T14:50:01;139.77;;;132.57;;
10410;SDS011;5251;52.112;8.606;2023-06-22T14:52:26;162.40;;;154.15;;